Time;durP1;ratioP1;P1;durP2;ratioP2;P2;SDS_P1;SDS_P2;PMS_P1;PMS_P2;Temp;Humidity;BMP_temperature;BMP_pressure;BME280_temperature;BME280_humidity;BME280_pressure;Samples;Min_cycle;Max_cycle;Signal;HPM_P1;HPM_P2
2022/10/15 00:01:48;;;;;;;0.80;0.10;;;23.20;62.90;;;;;;5049277;28;20045;-43
2022/10/15 00:04:16;;;;;;;0.43;0.20;;;23.20;62.90;;;;;;5049597;28;20033;-42
2022/10/15 00:06:43;;;;;;;0.17;0.10;;;23.20;62.90;;;;;;5049371;28;20048;-42
2022/10/15 00:09:10;;;;;;;0.10;0.10;;;23.20;62.90;;;;;;5049458;28;20041;-42
2022/10/15 00:11:39;;;;;;;0.32;0.17;;;23.20;62.90;;;;;;5049363;28;20045;-42
2022/10/15 00:14:06;;;;;;;0.10;0.03;;;23.20;62.90;;;;;;5049382;28;20414;-42
2022/10/15 00:16:33;;;;;;;0.10;0.10;;;23.20;62.90;;;;;;5049027;28;20037;-42
2022/10/15 00:19:00;;;;;;;0.20;0.10;;;23.20;62.90;;;;;;5049032;28;20502;-43
2022/10/15 00:21:28;;;;;;;0.10;0.10;;;23.20;62.90;;;;;;5048738;28;20140;-42
2022/10/15 00:23:55;;;;;;;0.28;0.10;;;23.20;63.10;;;;;;5048189;28;20417;-42
2022/10/15 00:26:24;;;;;;;0.10;0.10;;;23.20;63.20;;;;;;5048900;28;20057;-42
2022/10/15 00:28:55;;;;;;;0.10;0.10;;;23.20;63.20;;;;;;5049296;28;20470;-43
2022/10/15 00:31:25;;;;;;;0.40;0.40;;;23.20;63.20;;;;;;5047488;28;20084;-42
2022/10/15 00:33:55;;;;;;;0.47;0.10;;;23.20;63.20;;;;;;5048765;28;20041;-42
2022/10/15 00:36:24;;;;;;;3.15;1.48;;;23.20;63.20;;;;;;5048615;28;20036;-42
2022/10/15 00:38:52;;;;;;;4.13;0.10;;;23.20;63.20;;;;;;5049087;28;20048;-42
2022/10/15 00:41:21;;;;;;;0.10;0.05;;;23.20;63.20;;;;;;5048866;28;20139;-43
2022/10/15 00:43:50;;;;;;;0.00;0.00;;;23.20;63.10;;;;;;5048332;28;20072;-43
2022/10/15 00:46:24;;;;;;;0.10;0.03;;;23.20;63.10;;;;;;5048849;28;20050;-42
2022/10/15 00:48:56;;;;;;;0.10;0.05;;;23.20;63.10;;;;;;5046838;28;20045;-42
2022/10/15 00:51:26;;;;;;;0.32;0.10;;;23.20;63.00;;;;;;5047057;28;20490;-42
2022/10/15 00:53:53;;;;;;;0.00;0.00;;;23.20;63.00;;;;;;5048624;28;20060;-42
2022/10/15 00:56:24;;;;;;;0.10;0.10;;;23.20;63.00;;;;;;5048603;28;20144;-42
2022/10/15 00:58:53;;;;;;;0.47;0.10;;;23.20;63.00;;;;;;5048405;28;20580;-42
2022/10/15 01:01:24;;;;;;;0.10;0.10;;;23.20;63.10;;;;;;5046460;28;20124;-42
2022/10/15 01:03:52;;;;;;;0.10;0.10;;;23.20;63.10;;;;;;5046685;28;20045;-42
2022/10/15 01:06:19;;;;;;;0.10;0.00;;;23.20;63.10;;;;;;5048660;28;20044;-42
2022/10/15 01:08:46;;;;;;;0.10;0.08;;;23.20;63.10;;;;;;5048434;28;20382;-42
2022/10/15 01:11:27;;;;;;;0.00;0.00;;;23.20;63.10;;;;;;5047465;28;20505;-42
2022/10/15 01:14:07;;;;;;;0.00;0.00;;;23.20;63.00;;;;;;5042569;28;20513;-42
2022/10/15 01:16:45;;;;;;;0.00;0.00;;;23.20;63.00;;;;;;5047981;28;20052;-42
2022/10/15 01:19:28;;;;;;;0.17;0.10;;;23.10;62.90;;;;;;5047665;28;20079;-43
2022/10/15 01:22:04;;;;;;;0.10;0.00;;;23.20;63.00;;;;;;5046862;28;20055;-43
2022/10/15 01:24:54;;;;;;;1.30;0.10;;;23.20;63.00;;;;;;5046805;28;20041;-43
2022/10/15 01:27:35;;;;;;;0.22;0.00;;;23.20;62.90;;;;;;5077025;28;20045;-42
2022/10/15 01:30:23;;;;;;;0.10;0.05;;;23.10;62.90;;;;;;5048158;28;20143;-42
2022/10/15 01:33:22;;;;;;;0.10;0.10;;;23.10;62.80;;;;;;5040629;28;20053;-42
2022/10/15 01:35:52;;;;;;;0.10;0.10;;;23.20;62.90;;;;;;5046522;28;20087;-44
2022/10/15 01:38:32;;;;;;;4.07;0.10;;;23.10;62.90;;;;;;5046429;28;20049;-42
2022/10/15 01:41:04;;;;;;;0.75;0.45;;;23.10;62.90;;;;;;5045214;28;20041;-42
2022/10/15 01:43:37;;;;;;;0.00;0.00;;;23.10;62.90;;;;;;5079179;28;20460;-42
2022/10/15 01:46:30;;;;;;;0.10;0.00;;;23.10;62.90;;;;;;5047552;28;20048;-42
2022/10/15 01:49:05;;;;;;;0.73;0.10;;;23.10;62.90;;;;;;5046514;28;20051;-43
2022/10/15 01:51:36;;;;;;;0.50;0.05;;;23.10;63.00;;;;;;5047858;28;20041;-43
2022/10/15 01:54:08;;;;;;;0.10;0.10;;;23.10;63.00;;;;;;5039951;28;20053;-44
2022/10/15 01:56:38;;;;;;;0.00;0.00;;;23.10;63.00;;;;;;5040833;28;20041;-43
2022/10/15 01:59:07;;;;;;;0.00;0.00;;;23.10;63.00;;;;;;5046574;28;20051;-43
2022/10/15 02:01:35;;;;;;;0.52;0.10;;;23.10;62.90;;;;;;5045995;28;20095;-43
2022/10/15 02:04:18;;;;;;;0.10;0.10;;;23.10;63.00;;;;;;5046150;28;20041;-44
2022/10/15 02:06:53;;;;;;;0.10;0.10;;;23.10;62.90;;;;;;5046399;28;20037;-43
2022/10/15 02:09:29;;;;;;;0.10;0.10;;;23.10;62.90;;;;;;5047626;28;20056;-43
2022/10/15 02:12:00;;;;;;;;;;;23.10;62.90;;;;;;5048007;28;20037;-43
2022/10/15 02:14:34;;;;;;;0.00;0.00;;;23.10;62.90;;;;;;5046230;28;19932;-43
2022/10/15 02:17:08;;;;;;;0.00;0.00;;;23.00;63.00;;;;;;5045797;28;20119;-43
2022/10/15 02:19:43;;;;;;;0.00;0.00;;;23.10;63.10;;;;;;5041731;28;20049;-43
2022/10/15 02:22:16;;;;;;;0.38;0.00;;;23.10;63.00;;;;;;5047417;28;20129;-44
2022/10/15 02:24:50;;;;;;;0.03;0.00;;;23.10;63.00;;;;;;5051314;28;20044;-43
2022/10/15 02:27:20;;;;;;;0.00;0.00;;;23.10;63.00;;;;;;5051386;28;20047;-43
2022/10/15 02:29:50;;;;;;;0.88;0.00;;;23.00;62.90;;;;;;5050460;28;20064;-44
2022/10/15 02:32:21;;;;;;;0.00;0.00;;;23.10;63.00;;;;;;5050793;28;20572;-43
2022/10/15 02:34:50;;;;;;;0.10;0.10;;;23.10;63.00;;;;;;5051194;28;20049;-44
2022/10/15 02:37:20;;;;;;;0.00;0.00;;;23.10;63.00;;;;;;5049898;28;20116;-43
2022/10/15 02:39:47;;;;;;;2.38;0.05;;;23.10;63.10;;;;;;5051220;28;20120;-44
2022/10/15 02:42:16;;;;;;;0.00;0.00;;;23.10;63.00;;;;;;5049816;28;20523;-44
2022/10/15 02:44:43;;;;;;;0.10;0.00;;;23.10;63.10;;;;;;5050536;28;20689;-43
2022/10/15 02:47:11;;;;;;;1.23;0.00;;;23.10;63.10;;;;;;5050948;28;20838;-46
2022/10/15 02:49:41;;;;;;;1.23;0.00;;;23.00;63.20;;;;;;5049487;28;20048;-44
2022/10/15 02:52:08;;;;;;;0.85;0.00;;;23.10;63.20;;;;;;5049203;28;20025;-43
2022/10/15 02:54:35;;;;;;;0.00;0.00;;;23.10;63.20;;;;;;5049165;28;20059;-42
2022/10/15 02:57:02;;;;;;;0.00;0.00;;;23.10;63.20;;;;;;5050614;28;20787;-42
2022/10/15 02:59:29;;;;;;;0.55;0.47;;;23.10;63.10;;;;;;5048849;28;20124;-42
2022/10/15 03:01:56;;;;;;;0.15;0.00;;;23.10;63.10;;;;;;5048999;28;20052;-42
2022/10/15 03:04:24;;;;;;;0.00;0.00;;;23.10;63.10;;;;;;5049634;28;20052;-45
2022/10/15 03:06:53;;;;;;;0.00;0.00;;;23.10;63.10;;;;;;5048251;28;20041;-42
2022/10/15 03:09:20;;;;;;;0.10;0.00;;;23.10;63.20;;;;;;5049083;28;20044;-42
2022/10/15 03:11:47;;;;;;;0.03;0.00;;;23.10;63.30;;;;;;5049153;28;20040;-43
2022/10/15 03:14:15;;;;;;;0.10;0.00;;;23.10;63.30;;;;;;5048603;28;20036;-42
2022/10/15 03:16:42;;;;;;;0.90;0.00;;;23.10;63.30;;;;;;5049010;28;20060;-42
2022/10/15 03:19:10;;;;;;;0.32;0.00;;;23.10;63.40;;;;;;5049420;28;20065;-43
2022/10/15 03:21:38;;;;;;;0.47;0.00;;;23.10;63.50;;;;;;5048466;28;20049;-42
2022/10/15 03:24:12;;;;;;;2.10;0.00;;;23.10;63.50;;;;;;5048561;28;20130;-42
2022/10/15 03:26:39;;;;;;;0.00;0.00;;;23.10;63.50;;;;;;5032709;28;20805;-44
2022/10/15 03:29:06;;;;;;;0.08;0.00;;;23.10;63.40;;;;;;5048735;28;20055;-42
2022/10/15 03:31:38;;;;;;;0.00;0.00;;;23.10;63.50;;;;;;5044288;28;20037;-42
2022/10/15 03:34:06;;;;;;;0.00;0.00;;;23.10;63.40;;;;;;5049233;28;20551;-43
2022/10/15 03:36:33;;;;;;;0.10;0.00;;;23.10;63.40;;;;;;5050057;28;20120;-42
2022/10/15 03:39:01;;;;;;;0.22;0.00;;;23.10;63.40;;;;;;5041849;28;20377;-42
2022/10/15 03:41:29;;;;;;;0.00;0.00;;;23.10;63.40;;;;;;5047155;28;20045;-42
2022/10/15 03:44:01;;;;;;;0.00;0.00;;;23.10;63.40;;;;;;5048321;28;20128;-42
2022/10/15 03:46:28;;;;;;;1.27;0.00;;;23.10;63.30;;;;;;5048434;28;20037;-42
2022/10/15 03:48:55;;;;;;;1.50;0.00;;;23.10;63.40;;;;;;5048033;28;20091;-42
2022/10/15 03:51:23;;;;;;;0.10;0.10;;;23.10;63.30;;;;;;5042871;28;20117;-42
2022/10/15 03:53:53;;;;;;;0.20;0.00;;;23.10;63.40;;;;;;5046954;28;20052;-44
2022/10/15 03:56:20;;;;;;;0.45;0.00;;;23.10;63.50;;;;;;5047880;28;20045;-43
2022/10/15 03:58:49;;;;;;;0.95;0.00;;;23.10;63.50;;;;;;5048007;28;20037;-43
2022/10/15 04:01:18;;;;;;;2.33;0.00;;;23.10;63.50;;;;;;5044147;28;20829;-46
2022/10/15 04:03:45;;;;;;;1.45;0.00;;;23.10;63.40;;;;;;5047313;28;20041;-48
2022/10/15 04:06:16;;;;;;;0.00;0.00;;;23.10;63.40;;;;;;5048181;28;20098;-44
2022/10/15 04:08:43;;;;;;;0.00;0.00;;;23.10;63.30;;;;;;5049286;28;20529;-44
2022/10/15 04:11:23;;;;;;;0.10;0.00;;;23.10;63.30;;;;;;5043059;28;20033;-45
2022/10/15 04:14:01;;;;;;;0.00;0.00;;;23.10;63.30;;;;;;5048103;28;20141;-44
2022/10/15 04:16:31;;;;;;;1.00;0.00;;;23.20;63.30;;;;;;5047914;28;20073;-44
2022/10/15 04:18:58;;;;;;;0.00;0.00;;;23.20;63.30;;;;;;5048624;28;20041;-44
2022/10/15 04:21:25;;;;;;;0.82;0.00;;;23.20;63.20;;;;;;5045022;28;20580;-44
2022/10/15 04:23:56;;;;;;;0.10;0.00;;;23.20;63.40;;;;;;5044438;28;20045;-45
2022/10/15 04:26:30;;;;;;;0.10;0.00;;;23.20;63.50;;;;;;5046444;28;20501;-48
2022/10/15 04:29:01;;;;;;;0.22;0.00;;;23.10;62.70;;;;;;5047503;28;20406;-48
2022/10/15 04:31:29;;;;;;;3.50;1.08;;;22.80;62.80;;;;;;5048765;28;20112;-46
2022/10/15 04:33:57;;;;;;;3.25;0.08;;;22.50;63.70;;;;;;5080817;28;20112;-49
2022/10/15 04:36:26;;;;;;;2.13;0.55;;;22.20;63.80;;;;;;5046658;28;20119;-51
2022/10/15 04:39:05;;;;;;;0.38;0.00;;;22.00;64.60;;;;;;5047075;28;20584;-48
2022/10/15 04:41:41;;;;;;;0.10;0.00;;;21.70;65.30;;;;;;5045146;28;20472;-49
2022/10/15 04:44:13;;;;;;;1.25;0.55;;;21.60;66.00;;;;;;5046727;28;20139;-48
2022/10/15 04:46:45;;;;;;;0.55;0.10;;;21.40;66.50;;;;;;5046397;28;20037;-49
2022/10/15 04:49:32;;;;;;;0.47;0.10;;;21.20;67.00;;;;;;5046244;28;20053;-47
2022/10/15 04:52:00;;;;;;;0.10;0.00;;;21.10;67.60;;;;;;5080195;28;20044;-46
2022/10/15 04:54:30;;;;;;;1.90;0.00;;;20.90;68.00;;;;;;5046585;28;20053;-46
2022/10/15 04:56:59;;;;;;;0.85;0.00;;;20.80;68.70;;;;;;5046699;28;20119;-47
2022/10/15 04:59:28;;;;;;;1.25;0.10;;;20.70;68.80;;;;;;5047050;28;20040;-46
2022/10/15 05:02:14;;;;;;;0.73;0.10;;;20.60;69.20;;;;;;5041126;28;20113;-46
2022/10/15 05:04:42;;;;;;;1.55;0.00;;;20.60;69.60;;;;;;5046582;28;20056;-45
2022/10/15 05:07:09;;;;;;;0.10;0.00;;;20.50;69.90;;;;;;5048074;28;20043;-47
2022/10/15 05:09:37;;;;;;;0.40;0.00;;;20.50;70.60;;;;;;5047648;28;20450;-50
2022/10/15 05:12:04;;;;;;;1.75;0.10;;;20.40;70.30;;;;;;5046624;28;20045;-54
2022/10/15 05:14:34;;;;;;;2.38;0.63;;;20.40;70.50;;;;;;5047847;28;20084;-50
2022/10/15 05:17:24;;;;;;;0.03;0.00;;;20.40;70.70;;;;;;5047586;28;20033;-51
2022/10/15 05:19:51;;;;;;;2.17;0.00;;;20.30;70.90;;;;;;5045681;28;20841;-52
2022/10/15 05:22:22;;;;;;;0.68;0.25;;;20.30;71.10;;;;;;5029575;28;20148;-54
2022/10/15 05:24:53;;;;;;;5.18;0.00;;;20.20;71.30;;;;;;5044695;28;20059;-46
2022/10/15 05:27:32;;;;;;;0.75;0.00;;;20.20;71.50;;;;;;5047941;28;20037;-47
2022/10/15 05:30:01;;;;;;;2.35;0.10;;;20.20;71.70;;;;;;5039856;28;20086;-47
2022/10/15 05:32:45;;;;;;;1.17;0.00;;;20.10;71.90;;;;;;5024320;28;20053;-41
2022/10/15 05:35:16;;;;;;;1.30;0.00;;;20.10;72.20;;;;;;5043600;28;20032;-41
2022/10/15 05:37:53;;;;;;;0.47;0.00;;;20.10;72.60;;;;;;5045209;28;20037;-42
2022/10/15 05:40:20;;;;;;;0.10;0.10;;;20.20;72.80;;;;;;5044657;28;20491;-42
2022/10/15 05:42:58;;;;;;;0.95;0.00;;;20.30;72.60;;;;;;5028257;28;20052;-42
2022/10/15 05:45:27;;;;;;;0.45;0.00;;;20.50;72.40;;;;;;5045274;28;20045;-42
2022/10/15 05:47:55;;;;;;;0.60;0.05;;;20.60;72.10;;;;;;5045048;28;20049;-41
2022/10/15 05:50:22;;;;;;;0.00;0.00;;;20.80;71.90;;;;;;5045608;28;20064;-41
2022/10/15 05:52:51;;;;;;;0.00;0.00;;;20.90;71.70;;;;;;5043098;28;20506;-42
2022/10/15 05:55:33;;;;;;;0.65;0.00;;;21.00;71.30;;;;;;5043364;28;20526;-41
2022/10/15 05:58:02;;;;;;;0.40;0.00;;;21.10;71.10;;;;;;5048706;28;20041;-41
2022/10/15 06:00:31;;;;;;;1.33;0.20;;;21.20;70.80;;;;;;5050097;28;20098;-47
2022/10/15 06:02:58;;;;;;;2.97;0.00;;;21.40;71.20;;;;;;5050149;28;20045;-44
2022/10/15 06:05:26;;;;;;;1.00;0.28;;;21.40;69.80;;;;;;5050372;28;20099;-46
2022/10/15 06:07:53;;;;;;;0.90;0.00;;;21.30;69.60;;;;;;5050166;28;20417;-48
2022/10/15 06:10:20;;;;;;;0.00;0.00;;;21.10;69.60;;;;;;5050402;28;20029;-44
2022/10/15 06:12:49;;;;;;;0.10;0.00;;;21.00;69.80;;;;;;5050536;28;20174;-46
2022/10/15 06:15:17;;;;;;;0.25;0.00;;;20.90;70.20;;;;;;5047915;28;20041;-45
2022/10/15 06:17:45;;;;;;;0.35;0.00;;;20.80;70.50;;;;;;5049905;28;20040;-45
2022/10/15 06:20:13;;;;;;;0.22;0.00;;;20.70;70.90;;;;;;5049968;28;20558;-45
2022/10/15 06:22:40;;;;;;;1.80;0.00;;;20.60;71.10;;;;;;5049479;28;20048;-46
2022/10/15 06:25:08;;;;;;;0.70;0.00;;;20.60;71.40;;;;;;5047879;28;20462;-46
2022/10/15 06:27:35;;;;;;;0.22;0.00;;;20.50;71.80;;;;;;5047421;28;20041;-44
2022/10/15 06:30:03;;;;;;;3.20;0.20;;;20.40;72.10;;;;;;5047221;28;20581;-46
2022/10/15 06:32:30;;;;;;;0.30;0.00;;;20.40;72.50;;;;;;5049445;28;20114;-46
2022/10/15 06:34:58;;;;;;;0.45;0.10;;;20.30;72.70;;;;;;5049574;28;20141;-47
2022/10/15 06:37:26;;;;;;;0.10;0.08;;;20.20;72.90;;;;;;5049308;28;20026;-43
2022/10/15 06:39:55;;;;;;;1.40;0.00;;;20.20;73.10;;;;;;5048778;28;20106;-44
2022/10/15 06:42:22;;;;;;;0.88;0.15;;;20.20;73.30;;;;;;5049423;28;20053;-46
2022/10/15 06:44:49;;;;;;;0.00;0.00;;;20.10;73.60;;;;;;5048015;28;20036;-46
2022/10/15 06:47:17;;;;;;;0.20;0.00;;;20.10;73.90;;;;;;5048913;28;20033;-45
2022/10/15 06:49:47;;;;;;;0.57;0.00;;;20.00;74.00;;;;;;5048011;28;20086;-45
2022/10/15 06:52:15;;;;;;;1.13;0.00;;;20.00;74.20;;;;;;5049360;28;20048;-45
2022/10/15 06:54:42;;;;;;;0.10;0.00;;;20.00;74.40;;;;;;5049779;28;20527;-44
2022/10/15 06:57:11;;;;;;;0.68;0.00;;;19.90;74.50;;;;;;5048392;28;20045;-45
2022/10/15 06:59:38;;;;;;;0.25;0.20;;;19.90;74.60;;;;;;5049917;28;20032;-44
2022/10/15 07:02:05;;;;;;;0.28;0.00;;;19.90;74.70;;;;;;5048800;28;20564;-47
2022/10/15 07:04:32;;;;;;;0.00;0.00;;;19.90;75.00;;;;;;5048866;28;20146;-44
2022/10/15 07:06:58;;;;;;;0.50;0.00;;;19.90;75.10;;;;;;5048673;28;20116;-45
2022/10/15 07:09:29;;;;;;;0.65;0.00;;;19.90;75.30;;;;;;5046191;28;20052;-46
2022/10/15 07:11:56;;;;;;;0.00;0.00;;;19.80;75.30;;;;;;5048845;28;20052;-44
2022/10/15 07:14:23;;;;;;;3.65;1.00;;;19.80;75.60;;;;;;5048795;28;20060;-45
2022/10/15 07:16:50;;;;;;;1.10;0.00;;;19.80;75.80;;;;;;5043543;28;20143;-44
2022/10/15 07:19:17;;;;;;;0.57;0.28;;;19.80;75.80;;;;;;5045601;28;20037;-44
2022/10/15 07:21:46;;;;;;;1.30;0.00;;;19.80;75.90;;;;;;5048579;28;20041;-45
2022/10/15 07:24:14;;;;;;;0.75;0.00;;;19.80;75.90;;;;;;5047720;28;20053;-45
2022/10/15 07:26:42;;;;;;;0.68;0.00;;;19.80;76.10;;;;;;5047706;28;20045;-46
2022/10/15 07:29:09;;;;;;;0.30;0.10;;;19.80;76.10;;;;;;5049020;28;20040;-45
2022/10/15 07:31:36;;;;;;;0.20;0.20;;;19.80;76.30;;;;;;5048302;28;20711;-49
2022/10/15 07:34:03;;;;;;;0.52;0.00;;;19.80;76.30;;;;;;5048591;28;20474;-45
2022/10/15 07:36:30;;;;;;;0.00;0.00;;;19.80;76.50;;;;;;5048592;28;20136;-44
2022/10/15 07:38:57;;;;;;;0.00;0.00;;;19.80;76.50;;;;;;5048175;28;20056;-46
2022/10/15 07:41:24;;;;;;;1.27;0.00;;;19.80;76.70;;;;;;5046886;28;20603;-45
2022/10/15 07:43:53;;;;;;;0.10;0.00;;;19.80;76.70;;;;;;5047705;28;20153;-45
2022/10/15 07:46:20;;;;;;;2.00;0.10;;;19.80;76.80;;;;;;5046715;28;20437;-44
2022/10/15 07:48:54;;;;;;;0.03;0.00;;;19.80;77.00;;;;;;5047242;28;20045;-45
2022/10/15 07:51:21;;;;;;;0.88;0.00;;;19.80;77.00;;;;;;5045375;28;20132;-46
2022/10/15 07:53:48;;;;;;;0.00;0.00;;;19.80;77.20;;;;;;5044753;28;20569;-46
2022/10/15 07:56:16;;;;;;;0.55;0.25;;;19.80;77.90;;;;;;5046527;28;20037;-44
2022/10/15 07:58:50;;;;;;;0.20;0.00;;;19.80;77.30;;;;;;5046544;28;20052;-47
2022/10/15 08:01:19;;;;;;;0.00;0.00;;;19.80;77.40;;;;;;5045383;28;20074;-47
2022/10/15 08:03:47;;;;;;;0.00;0.00;;;19.80;77.40;;;;;;5045677;28;20564;-46
2022/10/15 08:06:14;;;;;;;0.00;0.00;;;19.70;77.40;;;;;;5047477;28;20048;-46
2022/10/15 08:08:42;;;;;;;0.57;0.00;;;19.80;77.50;;;;;;5046898;28;20041;-44
2022/10/15 08:11:10;;;;;;;1.25;0.00;;;19.70;77.30;;;;;;5045774;28;20037;-47
2022/10/15 08:13:40;;;;;;;0.00;0.00;;;19.70;77.30;;;;;;5045789;28;20051;-47
2022/10/15 08:16:07;;;;;;;0.00;0.00;;;19.70;77.30;;;;;;5046675;28;20708;-52
2022/10/15 08:18:36;;;;;;;0.00;0.00;;;19.80;77.40;;;;;;5046377;28;20048;-46
2022/10/15 08:21:05;;;;;;;0.03;0.00;;;19.80;77.30;;;;;;5046290;28;20069;-48
2022/10/15 08:23:32;;;;;;;0.00;0.00;;;19.80;77.20;;;;;;5042663;28;20037;-46
2022/10/15 08:26:00;;;;;;;0.10;0.00;;;19.80;77.20;;;;;;5047185;28;20037;-47
2022/10/15 08:28:27;;;;;;;0.28;0.00;;;19.80;77.00;;;;;;5045006;28;20033;-46
2022/10/15 08:30:55;;;;;;;1.08;0.00;;;19.80;76.90;;;;;;5045515;28;20053;-47
2022/10/15 08:33:22;;;;;;;1.45;0.00;;;19.80;76.70;;;;;;5060436;28;20037;-46
2022/10/15 08:35:52;;;;;;;1.67;0.55;;;19.80;76.50;;;;;;5047605;28;20106;-46
2022/10/15 08:38:19;;;;;;;0.10;0.00;;;19.80;76.40;;;;;;5047785;28;20037;-46
2022/10/15 08:40:48;;;;;;;0.00;0.00;;;19.90;76.20;;;;;;5046348;28;20076;-46
2022/10/15 08:43:22;;;;;;;0.98;0.00;;;19.80;76.10;;;;;;5046172;28;20044;-46
2022/10/15 08:45:51;;;;;;;1.77;1.35;;;19.90;75.80;;;;;;5045926;28;20702;-46
2022/10/15 08:48:23;;;;;;;0.60;0.00;;;19.90;75.70;;;;;;5046827;28;20043;-45
2022/10/15 08:50:59;;;;;;;0.10;0.00;;;19.90;75.60;;;;;;5046055;28;20103;-49
2022/10/15 08:53:28;;;;;;;0.00;0.00;;;19.90;75.60;;;;;;5046352;28;20068;-46
2022/10/15 08:56:00;;;;;;;1.48;0.10;;;19.90;75.40;;;;;;5045259;28;20033;-46
2022/10/15 08:58:39;;;;;;;0.00;0.00;;;19.90;75.40;;;;;;5043945;28;20116;-47
2022/10/15 09:01:12;;;;;;;0.00;0.00;;;20.00;75.20;;;;;;5044259;28;20048;-46
2022/10/15 09:03:51;;;;;;;1.17;0.88;;;19.90;75.10;;;;;;5046099;28;20632;-49
2022/10/15 09:06:23;;;;;;;5.72;1.40;;;19.90;75.10;;;;;;5044120;28;20128;-47
2022/10/15 09:09:06;;;;;;;0.20;0.00;;;19.90;75.20;;;;;;5044072;28;20162;-48
2022/10/15 09:11:44;;;;;;;0.40;0.00;;;20.00;75.30;;;;;;5045267;28;20047;-46
2022/10/15 09:14:16;;;;;;;0.00;0.00;;;20.00;75.20;;;;;;5045742;28;20082;-46
2022/10/15 09:16:46;;;;;;;0.00;0.00;;;20.00;75.00;;;;;;5043911;28;20571;-54
2022/10/15 09:19:16;;;;;;;1.35;0.00;;;20.10;75.00;;;;;;5044498;28;20548;-45
2022/10/15 09:21:45;;;;;;;2.10;0.00;;;20.10;75.00;;;;;;5046059;28;20041;-45
2022/10/15 09:24:15;;;;;;;0.00;0.00;;;20.10;74.90;;;;;;5045800;28;20106;-47
2022/10/15 09:26:54;;;;;;;0.32;0.00;;;20.10;74.80;;;;;;5044167;28;20044;-46
2022/10/15 09:29:27;;;;;;;0.30;0.00;;;20.20;74.70;;;;;;5045587;28;20032;-47
2022/10/15 09:32:00;;;;;;;0.08;0.00;;;20.20;74.60;;;;;;5038985;28;20136;-47
2022/10/15 09:34:35;;;;;;;0.00;0.00;;;20.20;74.50;;;;;;5043951;28;20854;-47
2022/10/15 09:37:12;;;;;;;0.90;0.10;;;20.20;74.40;;;;;;5043311;28;20051;-46
2022/10/15 09:40:02;;;;;;;0.45;0.00;;;20.30;74.20;;;;;;5044976;28;20471;-47
2022/10/15 09:42:35;;;;;;;4.07;0.00;;;20.30;74.30;;;;;;5042364;28;20067;-48
2022/10/15 09:45:06;;;;;;;0.00;0.00;;;20.30;74.30;;;;;;5043220;28;20138;-47
2022/10/15 09:47:35;;;;;;;1.00;0.00;;;20.40;74.00;;;;;;5040245;28;20144;-46
2022/10/15 09:50:03;;;;;;;0.20;0.00;;;20.40;73.80;;;;;;5044402;28;20064;-46
2022/10/15 09:52:46;;;;;;;0.50;0.00;;;20.50;73.70;;;;;;5045416;28;20514;-48
2022/10/15 09:55:27;;;;;;;1.23;0.00;;;20.50;73.50;;;;;;5043566;28;20057;-48
2022/10/15 09:58:01;;;;;;;1.98;0.00;;;20.50;73.10;;;;;;5046430;28;20045;-46
2022/10/15 10:00:53;;;;;;;3.50;0.00;;;20.60;72.90;;;;;;5044502;28;20112;-48
2022/10/15 10:03:23;;;;;;;0.00;0.00;;;20.60;72.40;;;;;;5042838;28;20073;-48
2022/10/15 10:05:50;;;;;;;0.00;0.00;;;20.60;72.30;;;;;;5041715;28;20044;-48
2022/10/15 10:08:22;;;;;;;0.00;0.00;;;20.60;72.00;;;;;;5045582;28;20041;-51
2022/10/15 10:10:54;;;;;;;1.75;0.65;;;20.70;71.60;;;;;;5045212;28;20578;-55
2022/10/15 10:13:25;;;;;;;0.43;0.00;;;20.70;71.20;;;;;;5058470;28;20037;-53
2022/10/15 10:15:54;;;;;;;2.30;0.47;;;20.80;71.80;;;;;;5039566;28;20692;-52
2022/10/15 10:18:23;;;;;;;0.32;0.00;;;20.90;72.80;;;;;;5044210;28;20068;-57
2022/10/15 10:20:57;;;;;;;0.85;0.00;;;21.10;73.30;;;;;;5044004;28;20152;-54
2022/10/15 10:23:33;;;;;;;2.08;0.10;;;21.30;73.40;;;;;;5043970;28;20048;-53
2022/10/15 10:26:02;;;;;;;1.42;0.25;;;21.40;73.50;;;;;;5045752;28;20041;-52
2022/10/15 10:28:34;;;;;;;1.45;0.47;;;21.60;74.00;;;;;;5043538;28;20106;-52
2022/10/15 10:31:05;;;;;;;2.80;0.10;;;21.80;74.20;;;;;;5043616;28;20055;-47
2022/10/15 10:33:35;;;;;;;5.90;0.08;;;22.00;74.40;;;;;;5044219;28;20206;-46
2022/10/15 10:36:03;;;;;;;3.47;0.20;;;22.20;74.40;;;;;;5045016;28;20040;-49
2022/10/15 10:38:33;;;;;;;2.17;0.03;;;22.30;74.00;;;;;;5044663;28;20049;-47
2022/10/15 10:41:07;;;;;;;7.07;0.10;;;22.50;73.50;;;;;;5045134;28;20124;-47
2022/10/15 10:43:36;;;;;;;0.88;0.10;;;22.60;73.30;;;;;;5047827;28;20048;-46
2022/10/15 10:46:05;;;;;;;10.35;0.20;;;22.80;73.00;;;;;;5050418;28;20037;-48
2022/10/15 10:48:39;;;;;;;5.30;0.73;;;22.90;72.60;;;;;;5048758;28;20052;-47
2022/10/15 10:51:11;;;;;;;5.13;0.10;;;23.00;72.10;;;;;;5046828;28;20658;-46
2022/10/15 10:53:47;;;;;;;0.35;0.10;;;23.20;71.80;;;;;;5049881;28;20136;-46
2022/10/15 10:56:16;;;;;;;1.90;0.10;;;23.30;71.10;;;;;;5050096;28;20401;-48
2022/10/15 10:58:43;;;;;;;3.35;0.00;;;23.30;71.10;;;;;;5050135;28;20119;-48
2022/10/15 11:01:12;;;;;;;0.20;0.00;;;23.40;70.40;;;;;;5049825;28;20136;-50
2022/10/15 11:03:42;;;;;;;0.05;0.00;;;23.50;69.60;;;;;;5049264;28;20045;-47
2022/10/15 11:06:31;;;;;;;0.30;0.00;;;23.50;69.50;;;;;;5049744;28;20040;-45
2022/10/15 11:09:11;;;;;;;1.05;0.00;;;23.70;69.30;;;;;;5049848;28;20045;-45
2022/10/15 11:11:50;;;;;;;3.40;1.17;;;23.70;69.00;;;;;;5049444;28;20040;-47
2022/10/15 11:14:26;;;;;;;0.10;0.00;;;23.70;68.50;;;;;;5049480;28;20049;-46
2022/10/15 11:17:03;;;;;;;0.20;0.00;;;23.80;68.50;;;;;;5047804;28;20124;-47
2022/10/15 11:19:38;;;;;;;0.55;0.20;;;23.90;68.30;;;;;;5049736;28;20131;-46
2022/10/15 11:22:26;;;;;;;0.32;0.00;;;23.90;68.30;;;;;;5048232;28;20112;-46
2022/10/15 11:25:02;;;;;;;0.38;0.00;;;24.00;68.10;;;;;;5046733;28;20508;-50
2022/10/15 11:27:58;;;;;;;6.72;0.00;;;24.10;67.90;;;;;;5047950;28;20037;-49
2022/10/15 11:30:38;;;;;;;4.63;0.10;;;24.10;67.80;;;;;;5046993;28;20049;-48
2022/10/15 11:33:30;;;;;;;3.88;0.10;;;24.20;67.70;;;;;;5048818;28;20143;-47
2022/10/15 11:36:10;;;;;;;4.90;0.15;;;24.20;67.50;;;;;;5041587;28;20041;-46
2022/10/15 11:38:43;;;;;;;2.28;0.00;;;24.30;67.60;;;;;;5050018;28;20045;-46
2022/10/15 11:41:27;;;;;;;1.63;0.10;;;24.30;67.40;;;;;;5050043;28;20213;-45
2022/10/15 11:44:29;;;;;;;7.28;0.10;;;24.30;67.20;;;;;;5044480;28;20038;-46
2022/10/15 11:47:09;;;;;;;4.43;0.52;;;24.30;66.90;;;;;;5048702;28;20052;-49
2022/10/15 11:49:47;;;;;;;1.55;0.10;;;24.30;66.60;;;;;;5050925;28;20684;-45
2022/10/15 11:52:40;;;;;;;0.00;0.00;;;24.40;66.20;;;;;;5044915;28;20112;-45
2022/10/15 11:55:13;;;;;;;0.00;0.00;;;24.40;65.70;;;;;;5045890;28;20047;-45
2022/10/15 11:57:44;;;;;;;1.95;0.10;;;24.40;65.80;;;;;;5050163;28;20045;-46
2022/10/15 12:00:22;;;;;;;0.10;0.10;;;24.40;65.30;;;;;;5049955;28;20044;-47
2022/10/15 12:02:52;;;;;;;1.00;0.00;;;24.40;65.20;;;;;;5049293;28;20112;-46
2022/10/15 12:05:26;;;;;;;1.70;0.00;;;24.40;64.90;;;;;;5048254;28;20051;-46
2022/10/15 12:07:54;;;;;;;2.88;0.00;;;24.40;64.80;;;;;;5043541;28;20095;-45
2022/10/15 12:10:36;;;;;;;0.00;0.00;;;24.40;64.30;;;;;;5043184;28;20056;-45
2022/10/15 12:13:11;;;;;;;0.00;0.00;;;24.50;63.80;;;;;;5045363;28;20101;-47
2022/10/15 12:15:47;;;;;;;0.00;0.00;;;24.40;63.70;;;;;;5048540;28;20032;-47
2022/10/15 12:18:22;;;;;;;0.98;0.00;;;24.40;63.60;;;;;;5048037;28;20375;-49
2022/10/15 12:20:50;;;;;;;6.53;0.08;;;24.40;63.60;;;;;;5049603;28;20394;-47
2022/10/15 12:23:26;;;;;;;0.10;0.10;;;24.40;63.30;;;;;;5049616;28;20041;-46
2022/10/15 12:25:54;;;;;;;0.10;0.00;;;24.50;63.10;;;;;;5042994;28;20049;-46
2022/10/15 12:28:26;;;;;;;0.85;0.00;;;24.40;63.00;;;;;;5050004;28;20052;-45
2022/10/15 12:31:03;;;;;;;2.33;0.00;;;24.40;62.80;;;;;;5049679;28;20053;-46
2022/10/15 12:33:36;;;;;;;1.83;0.00;;;24.50;62.70;;;;;;5049166;28;20122;-50
2022/10/15 12:36:08;;;;;;;0.10;0.00;;;24.40;62.50;;;;;;5049096;28;20056;-44
2022/10/15 12:38:38;;;;;;;0.00;0.00;;;24.40;62.40;;;;;;5048836;28;20069;-44
2022/10/15 12:41:08;;;;;;;0.00;0.00;;;24.40;62.30;;;;;;5049159;28;20041;-47
2022/10/15 12:43:40;;;;;;;0.00;0.00;;;24.40;62.30;;;;;;5049204;28;20509;-46
2022/10/15 12:46:10;;;;;;;0.28;0.00;;;24.40;62.20;;;;;;5048859;28;20045;-44
2022/10/15 12:48:40;;;;;;;0.47;0.00;;;24.30;62.10;;;;;;5046686;28;20120;-46
2022/10/15 12:51:37;;;;;;;0.25;0.00;;;24.40;62.10;;;;;;5048367;28;20045;-46
2022/10/15 12:54:38;;;;;;;0.00;0.00;;;24.30;62.10;;;;;;5041556;28;20061;-45
2022/10/15 12:57:51;;;;;;;0.00;0.00;;;24.30;62.00;;;;;;5048828;28;20136;-46
2022/10/15 13:00:37;;;;;;;0.00;0.00;;;24.30;62.20;;;;;;5026351;28;20049;-48
2022/10/15 13:03:24;;;;;;;0.05;0.05;;;24.30;62.40;;;;;;5020195;28;20045;-46
2022/10/15 13:05:54;;;;;;;0.38;0.00;;;24.30;62.50;;;;;;5021881;28;20050;-48
2022/10/15 13:08:30;;;;;;;0.52;0.00;;;24.30;62.70;;;;;;5020846;28;20034;-44
2022/10/15 13:10:59;;;;;;;1.48;0.15;;;24.30;62.70;;;;;;5024759;28;20049;-44
2022/10/15 13:13:29;;;;;;;0.10;0.10;;;24.30;62.70;;;;;;5026317;28;20411;-45